Franklin, WI

8:43 PM CST on February 01, 2015 (GMT -0600)
Batten | Change Station
CLOSE
Current Station
Airport
Location: Racine,
Elevation: 673 ft
Nearby Weather Stations
Active Advisory: Winter Storm Warning Active Notice: Local Storm Report

Elev 673 ft 42.76 °N, 87.81 °W | Updated 39 minutes ago

Snow
Snow
20 °F
Feels Like 3 °F
N
23
Wind Variable Wind from NNE
Gusts 40 mph

Today
High -- | Low -- °F
--% Chance of Precip.
Yesterday
High -- | Low -- °F
Precip. -- in
7:07 AM 5:04 PM
Waxing Gibbous, 97% visible
Pressure 29.90 in
Visibility 0.8 miles
Clouds
Windchill 3 °F
Dew Point 16 °F
Humidity 85%
Rainfall 0.00 in
Snow Depth Not available.
UV Not available.
Pollen .10 out of 12
Air Quality Not available.
Flu Activity Not available.
SPECI KRAC 020204Z AUTO 03020G35KT 3/4SM -SN BR VV014 M07/M09 A2990 RMK AO2 PK WND 03035/0155 P0000 T10671089

More Conditions Fewer Conditions

Pressure 29.90 in
Visibility 0.8 miles
Clouds
Windchill 3 °F
Dew Point 16 °F
Humidity 85%
Rainfall 0.00 in
Snow Depth Not available.
UV Not available.
Pollen .10 out of 12
Air Quality Not available.
Flu Activity Not available.
SPECI KRAC 020204Z AUTO 03020G35KT 3/4SM -SN BR VV014 M07/M09 A2990 RMK AO2 PK WND 03035/0155 P0000 T10671089

More Conditions Fewer Conditions

10-Day Weather Forecast

Almanac

Astronomy

Feb. 01, 2015 Rise Set
Actual Time
Civil Twilight
Nautical Twilight
Astronomical Twilight
Moon
Length of Visible Light
Length of Day
Tomorrow will be .
, % of the Moon is Illuminated

Today's Extremes

State Highs State Lows

Community

WunderPhotos

Upload Photos

1,792,659 photos uploaded!

WunderBlogs® & News

Nearby

Air Quality

  Air Quality AQ Index Pollutant
Not available.

Snow Depth

Station Depth Elevation

Earthquake Activity

City Distance Mag. Time & Date
Minimum magnitude displayed is 2.5.

Coastal Water Temperatures

Place Temperature

Nearby Weather Stations